createdAt,value
2022-08-30T00:00:51.089Z,21.40
2022-08-30T00:03:15.879Z,21.40
2022-08-30T00:05:40.314Z,21.30
2022-08-30T00:08:04.631Z,21.40
2022-08-30T00:10:30.996Z,21.30
2022-08-30T00:12:54.944Z,21.40
2022-08-30T00:15:19.791Z,21.30
2022-08-30T00:17:43.903Z,21.20
2022-08-30T00:20:12.641Z,21.30
2022-08-30T00:22:39.771Z,21.30
2022-08-30T00:25:03.415Z,21.20
2022-08-30T00:27:28.439Z,21.20
2022-08-30T00:29:52.109Z,21.10
2022-08-30T00:32:16.338Z,21.10
2022-08-30T00:34:40.066Z,21.10
2022-08-30T00:37:03.691Z,21.00
2022-08-30T00:39:27.627Z,20.90
2022-08-30T00:41:51.319Z,20.90
2022-08-30T00:44:16.465Z,20.90
2022-08-30T00:46:40.068Z,21.00
2022-08-30T00:49:08.238Z,21.00
2022-08-30T00:51:33.473Z,20.90
2022-08-30T00:53:59.226Z,20.90
2022-08-30T00:56:24.586Z,20.80
2022-08-30T00:58:51.970Z,20.80
2022-08-30T01:01:17.843Z,20.90
2022-08-30T01:03:43.410Z,20.90
2022-08-30T01:06:08.706Z,20.80
2022-08-30T01:08:32.461Z,20.80
2022-08-30T01:10:58.017Z,20.70
2022-08-30T01:13:22.719Z,20.80
2022-08-30T01:15:47.159Z,20.70
2022-08-30T01:18:13.240Z,20.70
2022-08-30T01:20:46.209Z,20.80
2022-08-30T01:23:15.665Z,20.80
2022-08-30T01:25:42.387Z,20.80
2022-08-30T01:28:09.426Z,20.80
2022-08-30T01:30:34.042Z,20.60
2022-08-30T01:33:01.535Z,20.70
2022-08-30T01:35:30.071Z,20.80
2022-08-30T01:37:53.644Z,20.70
2022-08-30T01:40:19.756Z,20.70
2022-08-30T01:42:43.913Z,20.70
2022-08-30T01:45:10.069Z,20.70
2022-08-30T01:47:34.053Z,20.80
2022-08-30T01:49:58.350Z,20.60
2022-08-30T01:52:22.820Z,20.80
2022-08-30T01:54:48.109Z,20.90
2022-08-30T01:57:17.230Z,21.00
2022-08-30T01:59:43.614Z,20.80
2022-08-30T02:02:08.252Z,20.70
2022-08-30T02:04:32.100Z,20.70
2022-08-30T02:06:55.636Z,20.70
2022-08-30T02:09:19.213Z,20.50
2022-08-30T02:11:43.620Z,20.50
2022-08-30T02:14:08.605Z,20.60
2022-08-30T02:16:34.536Z,20.70
2022-08-30T02:18:58.417Z,20.60
2022-08-30T02:21:22.508Z,20.60
2022-08-30T02:23:46.937Z,20.30
2022-08-30T02:26:11.977Z,20.50
2022-08-30T02:28:35.723Z,20.40
2022-08-30T02:31:14.378Z,20.50
2022-08-30T02:33:38.089Z,20.50
2022-08-30T02:36:04.816Z,20.40
2022-08-30T02:38:28.495Z,20.40
2022-08-30T02:40:52.989Z,20.20
2022-08-30T02:43:17.563Z,20.30
2022-08-30T02:45:41.338Z,20.40
2022-08-30T02:48:06.878Z,20.30
2022-08-30T02:50:31.241Z,20.30
2022-08-30T02:52:56.033Z,20.20
2022-08-30T02:55:20.290Z,20.20
2022-08-30T02:57:44.573Z,20.30
2022-08-30T03:00:10.921Z,20.30
2022-08-30T03:02:34.594Z,20.40
2022-08-30T03:04:59.560Z,20.20
2022-08-30T03:07:23.116Z,20.10
2022-08-30T03:09:46.872Z,20.20
2022-08-30T03:12:11.342Z,20.20
2022-08-30T03:14:36.661Z,20.30
2022-08-30T03:17:00.225Z,20.10
2022-08-30T03:19:25.046Z,20.10
2022-08-30T03:21:50.665Z,20.00
2022-08-30T03:24:14.702Z,20.20
2022-08-30T03:26:40.364Z,20.10
2022-08-30T03:29:06.878Z,20.20
2022-08-30T03:31:30.694Z,20.20
2022-08-30T03:34:01.775Z,20.30
2022-08-30T03:36:28.307Z,20.30
2022-08-30T03:38:53.713Z,20.30
2022-08-30T03:41:17.293Z,20.40
2022-08-30T03:43:40.807Z,20.40
2022-08-30T03:46:08.889Z,20.20
2022-08-30T03:48:33.004Z,20.20
2022-08-30T03:50:56.510Z,20.30
2022-08-30T03:53:20.338Z,20.20
2022-08-30T03:55:45.331Z,20.10
2022-08-30T03:58:10.088Z,20.10
2022-08-30T04:00:33.806Z,20.20
2022-08-30T04:02:57.352Z,20.10
2022-08-30T04:05:21.696Z,20.30
2022-08-30T04:07:45.908Z,20.30
2022-08-30T04:10:11.988Z,20.20
2022-08-30T04:12:38.723Z,20.20
2022-08-30T04:15:02.517Z,20.10
2022-08-30T04:17:26.516Z,19.90
2022-08-30T04:19:50.183Z,19.80
2022-08-30T04:22:13.885Z,20.00
2022-08-30T04:24:38.423Z,19.90
2022-08-30T04:27:02.375Z,19.80
2022-08-30T04:29:27.576Z,19.90
2022-08-30T04:31:51.280Z,20.00
2022-08-30T04:34:15.469Z,19.90
2022-08-30T04:36:39.208Z,19.90
2022-08-30T04:39:02.753Z,20.00
2022-08-30T04:41:26.464Z,20.20
2022-08-30T04:43:50.515Z,20.00
2022-08-30T04:46:16.317Z,19.80
2022-08-30T04:48:40.467Z,19.90
2022-08-30T04:51:06.660Z,20.00
2022-08-30T04:53:30.325Z,19.90
2022-08-30T04:55:53.929Z,19.70
2022-08-30T04:58:18.002Z,19.70
2022-08-30T05:00:42.169Z,19.90
2022-08-30T05:03:07.199Z,19.70
2022-08-30T05:05:43.125Z,19.60
2022-08-30T05:08:07.475Z,19.60
2022-08-30T05:10:31.191Z,19.80
2022-08-30T05:12:55.167Z,19.80
2022-08-30T05:15:20.214Z,19.90
2022-08-30T05:17:44.661Z,19.70
2022-08-30T05:20:12.650Z,19.60
2022-08-30T05:22:38.237Z,19.60
2022-08-30T05:25:01.867Z,19.70
2022-08-30T05:27:25.469Z,19.80
2022-08-30T05:29:49.098Z,19.80
2022-08-30T05:32:12.648Z,19.70
2022-08-30T05:34:36.199Z,19.70
2022-08-30T05:37:02.802Z,19.70
2022-08-30T05:39:26.903Z,19.50
2022-08-30T05:41:50.614Z,19.60
2022-08-30T05:44:14.426Z,19.60
2022-08-30T05:46:39.791Z,19.70
2022-08-30T05:49:06.106Z,19.90
2022-08-30T05:51:31.465Z,19.70
2022-08-30T05:53:59.143Z,19.90
2022-08-30T05:56:25.881Z,19.70
2022-08-30T05:58:50.302Z,19.70
2022-08-30T06:01:23.330Z,19.70
2022-08-30T06:03:47.071Z,19.70
2022-08-30T06:06:10.809Z,19.70
2022-08-30T06:08:34.457Z,19.50
2022-08-30T06:10:59.585Z,19.50
2022-08-30T06:13:23.532Z,19.60
2022-08-30T06:15:47.299Z,19.60
2022-08-30T06:18:11.022Z,19.60
2022-08-30T06:20:35.145Z,19.60
2022-08-30T06:22:59.102Z,19.70
2022-08-30T06:25:22.834Z,19.80
2022-08-30T06:27:48.054Z,19.60
2022-08-30T06:30:12.670Z,19.90
2022-08-30T06:32:36.779Z,19.90
2022-08-30T06:35:00.620Z,19.80
2022-08-30T06:37:25.611Z,20.10
2022-08-30T06:39:57.647Z,20.00
2022-08-30T06:42:22.538Z,20.20
2022-08-30T06:44:47.759Z,20.00
2022-08-30T06:47:11.531Z,20.30
2022-08-30T06:49:35.372Z,20.10
2022-08-30T06:51:59.078Z,20.30
2022-08-30T06:54:23.208Z,20.40
2022-08-30T06:57:02.674Z,20.40
2022-08-30T06:59:27.259Z,20.60
2022-08-30T07:01:52.354Z,20.70
2022-08-30T07:04:16.178Z,20.80
2022-08-30T07:06:39.827Z,20.70
2022-08-30T07:09:03.910Z,20.90
2022-08-30T07:11:32.175Z,20.90
2022-08-30T07:13:55.907Z,20.90
2022-08-30T07:16:19.553Z,21.00
2022-08-30T07:18:55.149Z,21.00
2022-08-30T07:21:23.130Z,20.90
2022-08-30T07:23:53.297Z,20.80
2022-08-30T07:26:20.494Z,21.10
2022-08-30T07:28:46.393Z,21.30
2022-08-30T07:31:11.703Z,21.30
2022-08-30T07:33:35.587Z,21.40
2022-08-30T07:36:01.778Z,21.30
2022-08-30T07:38:26.167Z,21.40
2022-08-30T07:40:54.344Z,21.40
2022-08-30T07:43:18.731Z,21.20
2022-08-30T07:45:43.041Z,21.20
2022-08-30T07:48:08.678Z,21.30
2022-08-30T07:50:32.344Z,21.20
2022-08-30T07:52:57.483Z,21.20
2022-08-30T07:55:21.143Z,21.10
2022-08-30T07:57:47.861Z,21.20
2022-08-30T08:00:12.940Z,21.20
2022-08-30T08:02:37.325Z,21.40
2022-08-30T08:05:00.995Z,21.60
2022-08-30T08:07:24.727Z,21.40
2022-08-30T08:09:49.730Z,21.40
2022-08-30T08:12:13.714Z,21.60
2022-08-30T08:14:37.712Z,21.90
2022-08-30T08:17:03.224Z,22.00
2022-08-30T08:19:26.863Z,21.70
2022-08-30T08:21:55.696Z,21.50
2022-08-30T08:24:33.107Z,21.60
2022-08-30T08:26:58.197Z,21.60
2022-08-30T08:29:22.234Z,21.80
2022-08-30T08:31:47.061Z,21.90
2022-08-30T08:34:11.760Z,22.00
2022-08-30T08:36:36.556Z,22.20
2022-08-30T08:39:00.843Z,22.20
2022-08-30T08:41:38.612Z,22.30
2022-08-30T08:44:10.277Z,22.30
2022-08-30T08:46:45.512Z,22.10
2022-08-30T08:49:10.490Z,22.00
2022-08-30T08:51:55.445Z,22.10
2022-08-30T08:54:27.145Z,22.00
2022-08-30T08:56:50.756Z,22.30
2022-08-30T08:59:18.209Z,22.40
2022-08-30T09:01:42.154Z,22.60
2022-08-30T09:04:13.334Z,22.70
2022-08-30T09:06:54.384Z,22.60
2022-08-30T09:09:23.201Z,22.90
2022-08-30T09:11:49.165Z,22.90
2022-08-30T09:14:22.341Z,22.80
2022-08-30T09:17:02.919Z,23.00
2022-08-30T09:19:34.434Z,23.00
2022-08-30T09:22:00.147Z,23.10
2022-08-30T09:24:24.531Z,23.30
2022-08-30T09:26:50.500Z,23.30
2022-08-30T09:29:21.052Z,23.20
2022-08-30T09:32:05.640Z,23.20
2022-08-30T09:34:37.914Z,23.20
2022-08-30T09:37:02.028Z,23.10
2022-08-30T09:39:32.268Z,23.40
2022-08-30T09:41:56.553Z,23.50
2022-08-30T09:44:24.548Z,23.60
2022-08-30T09:46:51.960Z,23.60
2022-08-30T09:49:35.272Z,23.70
2022-08-30T09:52:30.210Z,23.80
2022-08-30T09:55:08.524Z,23.90
2022-08-30T09:57:46.077Z,23.60
2022-08-30T10:00:19.093Z,23.80
2022-08-30T10:03:08.726Z,24.00
2022-08-30T10:05:52.791Z,24.30
2022-08-30T10:08:25.308Z,23.90
2022-08-30T10:10:54.070Z,23.90
2022-08-30T10:13:51.864Z,24.10
2022-08-30T10:16:34.160Z,24.30
2022-08-30T10:19:06.682Z,24.20
2022-08-30T10:21:38.265Z,24.10
2022-08-30T10:24:07.489Z,24.30
2022-08-30T10:26:37.661Z,24.20
2022-08-30T10:29:09.573Z,24.10
2022-08-30T10:31:42.940Z,24.20
2022-08-30T10:34:13.773Z,24.30
2022-08-30T10:36:45.569Z,24.40
2022-08-30T10:39:12.061Z,24.40
2022-08-30T10:41:44.348Z,24.50
2022-08-30T10:44:18.941Z,24.80
2022-08-30T10:47:02.647Z,24.60
2022-08-30T10:49:30.425Z,24.70
2022-08-30T10:52:01.504Z,24.90
2022-08-30T10:54:38.390Z,24.50
2022-08-30T10:57:02.499Z,24.40
2022-08-30T10:59:26.481Z,24.30
2022-08-30T11:02:31.257Z,24.50
2022-08-30T11:05:36.466Z,24.60
2022-08-30T11:08:20.551Z,25.10
2022-08-30T11:10:59.756Z,25.10
2022-08-30T11:13:26.192Z,25.40
2022-08-30T11:16:01.097Z,25.20
2022-08-30T11:18:29.900Z,25.20
2022-08-30T11:20:56.503Z,25.20
2022-08-30T11:23:33.279Z,25.40
2022-08-30T11:26:00.721Z,25.20
2022-08-30T11:29:07.649Z,24.90
2022-08-30T11:31:40.957Z,25.10
2022-08-30T11:34:07.827Z,25.20
2022-08-30T11:37:04.043Z,25.10
2022-08-30T11:40:03.805Z,25.30
2022-08-30T11:42:38.759Z,25.30
2022-08-30T11:45:52.428Z,25.50
2022-08-30T11:48:54.143Z,25.30
2022-08-30T11:52:28.881Z,25.10
2022-08-30T11:55:10.750Z,25.10
2022-08-30T11:57:49.735Z,25.30
2022-08-30T12:00:31.347Z,25.50
2022-08-30T12:03:01.105Z,25.20
2022-08-30T12:05:59.075Z,25.40
2022-08-30T12:09:03.520Z,25.80
2022-08-30T12:11:58.650Z,25.80
2022-08-30T12:14:49.090Z,26.00
2022-08-30T12:17:50.743Z,25.90
2022-08-30T12:20:41.302Z,25.90
2022-08-30T12:23:21.159Z,26.50
2022-08-30T12:25:46.652Z,26.50
2022-08-30T12:28:14.344Z,26.30
2022-08-30T12:30:40.166Z,26.20
2022-08-30T12:33:04.082Z,26.30
2022-08-30T12:35:29.450Z,26.00
2022-08-30T12:38:02.403Z,26.10
2022-08-30T12:40:28.267Z,25.90
2022-08-30T12:42:56.568Z,26.20
2022-08-30T12:45:26.102Z,26.20
2022-08-30T12:47:54.339Z,26.00
2022-08-30T12:50:23.751Z,26.00
2022-08-30T12:52:50.008Z,26.00
2022-08-30T12:55:24.976Z,26.10
2022-08-30T12:58:02.232Z,25.90
2022-08-30T13:00:28.978Z,26.20
2022-08-30T13:02:55.201Z,26.20
2022-08-30T13:05:48.144Z,26.30
2022-08-30T13:08:18.221Z,26.20
2022-08-30T13:11:04.375Z,26.50
2022-08-30T13:13:38.903Z,25.90
2022-08-30T13:16:14.521Z,26.10
2022-08-30T13:18:38.796Z,26.00
2022-08-30T13:21:25.037Z,26.30
2022-08-30T13:23:48.808Z,26.30
2022-08-30T13:26:12.655Z,26.50
2022-08-30T13:28:51.746Z,26.40
2022-08-30T13:31:15.739Z,26.50
2022-08-30T13:33:39.847Z,26.30
2022-08-30T13:36:03.994Z,26.30
2022-08-30T13:38:27.571Z,26.60
2022-08-30T13:40:51.935Z,26.20
2022-08-30T13:43:15.754Z,26.10
2022-08-30T13:45:41.790Z,26.30
2022-08-30T13:48:07.480Z,26.30
2022-08-30T13:50:31.039Z,26.30
2022-08-30T13:52:54.590Z,26.40
2022-08-30T13:55:18.454Z,26.90
2022-08-30T13:57:58.004Z,26.90
2022-08-30T14:00:22.478Z,26.80
2022-08-30T14:02:54.846Z,26.90
2022-08-30T14:08:02.734Z,26.80
2022-08-30T14:10:31.231Z,26.60
2022-08-30T14:13:00.598Z,26.50
2022-08-30T14:15:26.383Z,26.60
2022-08-30T14:17:52.868Z,26.60
2022-08-30T14:20:17.794Z,26.80
2022-08-30T14:22:42.003Z,26.80
2022-08-30T14:25:07.805Z,26.90
2022-08-30T14:27:32.401Z,27.10
2022-08-30T14:29:56.147Z,26.90
2022-08-30T14:32:19.704Z,26.70
2022-08-30T14:34:45.107Z,26.70
2022-08-30T14:37:09.288Z,26.90
2022-08-30T14:39:32.893Z,26.90
2022-08-30T14:41:57.394Z,26.60
2022-08-30T14:44:23.272Z,26.80
2022-08-30T14:46:50.942Z,26.90
2022-08-30T14:49:16.245Z,26.80
2022-08-30T14:51:42.311Z,26.90
2022-08-30T14:54:06.590Z,27.00
2022-08-30T14:56:31.454Z,27.10
2022-08-30T14:59:00.367Z,26.90
2022-08-30T15:01:24.107Z,26.70
2022-08-30T15:03:48.510Z,26.80
2022-08-30T15:06:12.731Z,26.70
2022-08-30T15:08:39.363Z,26.90
2022-08-30T15:11:08.440Z,27.10
2022-08-30T15:13:32.034Z,27.30
2022-08-30T15:15:55.828Z,27.10
2022-08-30T15:18:20.526Z,26.70
2022-08-30T15:20:47.938Z,26.80
2022-08-30T15:23:12.170Z,26.70
2022-08-30T15:25:43.535Z,26.70
2022-08-30T15:28:07.218Z,26.60
2022-08-30T15:30:31.716Z,26.60
2022-08-30T15:32:55.282Z,26.60
2022-08-30T15:35:19.691Z,26.60
2022-08-30T15:37:46.396Z,26.60
2022-08-30T15:40:12.264Z,26.50
2022-08-30T15:42:38.332Z,26.50
2022-08-30T15:45:02.950Z,26.50
2022-08-30T15:47:27.749Z,26.50
2022-08-30T15:49:57.740Z,26.50
2022-08-30T15:52:27.190Z,26.30
2022-08-30T15:54:51.323Z,26.30
2022-08-30T15:57:15.341Z,26.40
2022-08-30T15:59:41.007Z,26.70
2022-08-30T16:02:05.014Z,26.60
2022-08-30T16:04:29.414Z,26.50
2022-08-30T16:06:53.106Z,26.60
2022-08-30T16:09:17.694Z,26.70
2022-08-30T16:11:41.992Z,26.60
2022-08-30T16:14:06.591Z,26.50
2022-08-30T16:16:33.303Z,26.50
2022-08-30T16:18:59.221Z,26.40
2022-08-30T16:21:25.531Z,26.30
2022-08-30T16:23:49.440Z,26.40
2022-08-30T16:26:17.422Z,26.40
2022-08-30T16:28:41.966Z,26.40
2022-08-30T16:31:08.209Z,26.10
2022-08-30T16:33:37.185Z,26.20
2022-08-30T16:36:02.908Z,26.20
2022-08-30T16:38:28.303Z,26.10
2022-08-30T16:40:53.203Z,26.10
2022-08-30T16:43:17.597Z,25.90
2022-08-30T16:45:43.245Z,25.90
2022-08-30T16:48:07.458Z,25.90
2022-08-30T16:50:33.368Z,25.70
2022-08-30T16:52:57.192Z,25.80
2022-08-30T16:55:21.340Z,25.70
2022-08-30T16:57:45.737Z,25.60
2022-08-30T17:00:13.105Z,25.80
2022-08-30T17:02:37.332Z,25.80
2022-08-30T17:05:00.978Z,25.80
2022-08-30T17:07:26.224Z,25.70
2022-08-30T17:09:52.985Z,25.80
2022-08-30T17:12:16.592Z,25.90
2022-08-30T17:14:40.903Z,25.80
2022-08-30T17:17:04.845Z,25.60
2022-08-30T17:19:28.766Z,25.50
2022-08-30T17:21:52.553Z,25.50
2022-08-30T17:24:17.502Z,25.50
2022-08-30T17:26:42.405Z,25.70
2022-08-30T17:29:07.825Z,25.60
2022-08-30T17:31:31.895Z,25.50
2022-08-30T17:34:00.564Z,25.40
2022-08-30T17:36:24.995Z,25.40
2022-08-30T17:38:48.712Z,25.30
2022-08-30T17:41:14.699Z,25.20
2022-08-30T17:43:39.410Z,25.20
2022-08-30T17:46:09.719Z,25.30
2022-08-30T17:48:33.404Z,25.30
2022-08-30T17:50:57.516Z,25.10
2022-08-30T17:53:21.138Z,25.00
2022-08-30T17:55:50.069Z,25.10
2022-08-30T17:58:15.475Z,25.10
2022-08-30T18:00:39.189Z,25.00
2022-08-30T18:03:04.324Z,25.20
2022-08-30T18:05:29.917Z,25.20
2022-08-30T18:07:56.463Z,25.00
2022-08-30T18:10:28.509Z,24.90
2022-08-30T18:12:57.980Z,25.00
2022-08-30T18:15:23.085Z,24.80
2022-08-30T18:17:49.037Z,24.70
2022-08-30T18:20:13.404Z,24.70
2022-08-30T18:22:37.724Z,24.70
2022-08-30T18:25:02.737Z,24.60
2022-08-30T18:27:28.321Z,24.70
2022-08-30T18:29:52.064Z,24.60
2022-08-30T18:32:17.903Z,24.70
2022-08-30T18:34:43.957Z,24.60
2022-08-30T18:37:11.429Z,24.70
2022-08-30T18:39:36.211Z,24.70
2022-08-30T18:42:00.245Z,24.50
2022-08-30T18:44:28.312Z,24.50
2022-08-30T18:46:56.636Z,24.50
2022-08-30T18:49:21.861Z,24.40
2022-08-30T18:51:45.706Z,24.50
2022-08-30T18:54:09.322Z,24.40
2022-08-30T18:56:33.398Z,24.40
2022-08-30T18:58:56.942Z,24.50
2022-08-30T19:01:22.914Z,24.40
2022-08-30T19:03:47.223Z,24.40
2022-08-30T19:06:13.948Z,24.30
2022-08-30T19:08:37.820Z,24.30
2022-08-30T19:11:05.116Z,24.30
2022-08-30T19:13:31.672Z,24.30
2022-08-30T19:15:55.963Z,24.20
2022-08-30T19:18:19.865Z,24.20
2022-08-30T19:20:44.148Z,24.10
2022-08-30T19:23:22.996Z,24.00
2022-08-30T19:25:47.326Z,23.90
2022-08-30T19:28:17.139Z,24.10
2022-08-30T19:30:41.016Z,24.10
2022-08-30T19:33:07.322Z,24.10
2022-08-30T19:35:35.134Z,24.10
2022-08-30T19:37:59.448Z,23.90
2022-08-30T19:40:25.507Z,23.90
2022-08-30T19:42:51.501Z,23.80
2022-08-30T19:45:21.504Z,23.80
2022-08-30T19:47:46.078Z,23.80
2022-08-30T19:50:11.006Z,23.90
2022-08-30T19:52:34.884Z,23.80
2022-08-30T19:54:59.330Z,23.80
2022-08-30T19:57:24.390Z,23.70
2022-08-30T19:59:48.051Z,23.80
2022-08-30T20:02:13.677Z,23.70
2022-08-30T20:04:40.847Z,23.70
2022-08-30T20:07:07.692Z,23.80
2022-08-30T20:09:31.468Z,23.60
2022-08-30T20:11:57.308Z,23.50
2022-08-30T20:14:25.973Z,23.60
2022-08-30T20:16:51.406Z,23.60
2022-08-30T20:19:17.090Z,23.40
2022-08-30T20:21:42.145Z,23.50
2022-08-30T20:24:09.672Z,23.40
2022-08-30T20:26:34.596Z,23.50
2022-08-30T20:29:00.309Z,23.50
2022-08-30T20:31:25.855Z,23.60
2022-08-30T20:33:50.040Z,23.40
2022-08-30T20:36:16.195Z,23.50
2022-08-30T20:38:40.968Z,23.30
2022-08-30T20:41:11.969Z,23.40
2022-08-30T20:43:35.488Z,23.30
2022-08-30T20:45:59.331Z,23.20
2022-08-30T20:48:28.589Z,23.30
2022-08-30T20:50:52.098Z,23.20
2022-08-30T20:53:16.372Z,23.20
2022-08-30T20:55:42.463Z,23.20
2022-08-30T20:58:06.374Z,23.30
2022-08-30T21:00:29.875Z,23.20
2022-08-30T21:02:53.460Z,23.20
2022-08-30T21:05:19.535Z,23.10
2022-08-30T21:07:43.497Z,23.10
2022-08-30T21:10:08.407Z,23.10
2022-08-30T21:12:32.055Z,23.10
2022-08-30T21:14:55.769Z,22.90
2022-08-30T21:17:19.809Z,23.00
2022-08-30T21:19:44.195Z,23.20
2022-08-30T21:22:09.232Z,23.10
2022-08-30T21:24:32.949Z,23.20
2022-08-30T21:26:57.040Z,23.20
2022-08-30T21:29:20.726Z,23.20
2022-08-30T21:31:44.783Z,23.10
2022-08-30T21:34:15.880Z,23.10
2022-08-30T21:36:46.294Z,23.20
2022-08-30T21:39:13.757Z,23.20
2022-08-30T21:41:38.930Z,23.10
2022-08-30T21:44:05.558Z,23.10
2022-08-30T21:46:37.419Z,23.00
2022-08-30T21:49:03.175Z,23.00
2022-08-30T21:51:26.900Z,23.10
2022-08-30T21:53:50.603Z,23.00
2022-08-30T21:56:21.625Z,22.90
2022-08-30T21:58:46.477Z,22.90
2022-08-30T22:01:11.350Z,22.90
2022-08-30T22:03:35.046Z,22.90
2022-08-30T22:05:58.614Z,22.90
2022-08-30T22:08:22.198Z,23.00
2022-08-30T22:10:45.917Z,23.10
2022-08-30T22:13:13.048Z,22.80
2022-08-30T22:15:37.128Z,23.00
2022-08-30T22:18:01.700Z,23.00
2022-08-30T22:20:25.296Z,23.00
2022-08-30T22:22:53.824Z,22.90
2022-08-30T22:25:17.461Z,22.80
2022-08-30T22:27:41.024Z,22.80
2022-08-30T22:30:07.288Z,22.80
2022-08-30T22:32:30.797Z,22.80
2022-08-30T22:34:54.531Z,22.80
2022-08-30T22:37:18.211Z,22.80
2022-08-30T22:39:41.768Z,22.90
2022-08-30T22:42:05.559Z,22.60
2022-08-30T22:44:29.183Z,22.60
2022-08-30T22:46:54.095Z,22.80
2022-08-30T22:49:17.708Z,22.60
2022-08-30T22:51:42.810Z,22.60
2022-08-30T22:54:09.596Z,22.50
2022-08-30T22:56:35.900Z,22.30
2022-08-30T22:58:59.915Z,22.20
2022-08-30T23:01:27.773Z,22.30
2022-08-30T23:03:53.636Z,22.40
2022-08-30T23:06:17.254Z,22.30
2022-08-30T23:08:40.834Z,22.40
2022-08-30T23:11:04.318Z,22.40
2022-08-30T23:13:27.986Z,22.50
2022-08-30T23:15:51.526Z,22.40
2022-08-30T23:18:15.026Z,22.60
2022-08-30T23:20:40.155Z,22.60
2022-08-30T23:23:02.585Z,22.40
2022-08-30T23:25:46.076Z,22.50
2022-08-30T23:28:33.620Z,22.50
2022-08-30T23:31:14.985Z,22.60
2022-08-30T23:33:56.112Z,22.80
2022-08-30T23:36:38.567Z,22.40
2022-08-30T23:39:21.756Z,22.50
2022-08-30T23:42:02.763Z,22.30
2022-08-30T23:44:43.788Z,22.10
2022-08-30T23:47:28.364Z,22.30
2022-08-30T23:50:14.120Z,22.10
2022-08-30T23:52:56.536Z,22.00
2022-08-30T23:55:37.927Z,22.00
2022-08-30T23:58:18.997Z,22.00
